Garden City, Washington
Current Conditions -  °F | °C
As of 9:53 PM on Saturday 25 Oct 2014 (Local Time) from KSHN Reporting Station
Few Clouds Few Clouds  
Wind Chill: 50°   Ceiling: Unl
Heat Index: 50°   Visibility: 10mi
Dew Point: 46°   Wind: 18mph
Humidity: 86%   Direction: 220°SW
Pressure: 29.63"   Gusts: NA
Location:  47.0427°N, 123.269°W
Report Text: KSHN 260453Z AUTO 22016KT 10SM FEW060 10/08 A2963 RMK AO2 PK WND 23031/0415 SLP036 T01000078 TSNO
Loading
Personal Weather Stations






























Interactive Weather Map
Tropical Storm Tracking
New forecast layout! Learn more

10-Day Weather Forecast

Advertisements
Track Severe Weather on mobile